Time;durP1;ratioP1;P1;durP2;ratioP2;P2;SDS_P1;SDS_P2;PMS_P1;PMS_P2;Temp;Humidity;BMP_temperature;BMP_pressure;BME280_temperature;BME280_humidity;BME280_pressure;Samples;Min_cycle;Max_cycle;Signal;HPM_P1;HPM_P2
2021/07/01 00:01:10;;;;;;;25.23;22.70;;;;;;;27.29;64.47;94006.48;829144;71;29335;-77
2021/07/01 00:16:10;;;;;;;23.70;21.20;;;;;;;27.08;65.22;94012.13;828327;71;29723;-79
2021/07/01 00:31:09;;;;;;;23.33;21.20;;;;;;;27.09;65.21;94021.16;828269;71;29262;-77
2021/07/01 00:46:15;;;;;;;24.13;21.50;;;;;;;27.08;65.30;94016.17;827826;71;31703;-77
2021/07/01 01:01:09;;;;;;;23.20;21.00;;;;;;;27.00;65.38;94014.15;828341;71;29581;-78
2021/07/01 01:16:16;;;;;;;22.70;20.70;;;;;;;26.96;65.52;94023.62;834349;71;32255;-76
2021/07/01 01:31:09;;;;;;;23.40;21.30;;;;;;;26.96;65.41;165780.72;828491;71;28674;-77
2021/07/01 01:46:09;;;;;;;21.53;19.50;;;;;;;26.91;65.39;94022.73;828479;71;28689;-78
2021/07/01 02:01:08;;;;;;;21.70;19.80;;;;;;;;;;828322;71;29334;-76
2021/07/01 02:16:10;;;;;;;21.07;19.17;;;;;;;26.74;65.46;94014.28;828718;71;29316;-77
2021/07/01 02:31:10;;;;;;;20.63;18.80;;;;;;;;;;835299;71;30504;-78
2021/07/01 02:46:09;;;;;;;19.63;17.83;;;;;;;26.73;65.53;94068.72;823645;71;29528;-78
2021/07/01 03:16:09;;;;;;;18.57;16.80;;;;;;;26.66;65.97;94093.59;834092;71;29795;-79
2021/07/01 03:31:13;;;;;;;20.33;18.43;;;;;;;26.77;65.46;94101.75;828364;71;31474;-79
2021/07/01 03:46:15;;;;;;;20.00;18.10;;;;;;;27.03;64.50;94108.97;834029;71;32372;-78
2021/07/01 04:01:27;;;;;;;19.60;17.53;;;;;;;27.37;63.79;94104.13;830816;71;32423;-78
2021/07/01 04:16:09;;;;;;;19.40;17.60;;;;;;;27.75;63.08;94093.22;834162;71;29337;-75
2021/07/01 04:31:14;;;;;;;18.97;17.20;;;;;;;28.47;61.52;94078.61;833958;71;31704;-82
2021/07/01 04:46:17;;;;;;;19.87;18.17;;;;;;;27.90;62.37;94077.03;833983;71;31752;-79
2021/07/01 05:01:14;;;;;;;26.07;17.97;;;;;;;28.05;61.79;94097.05;834139;71;31803;-76
2021/07/01 05:16:08;;;;;;;21.77;19.47;;;;;;;28.35;60.97;94096.92;828542;71;28680;-78
2021/07/01 05:31:15;;;;;;;21.20;19.20;;;;;;;28.17;61.19;94091.81;827557;71;31787;-76
2021/07/01 05:46:14;;;;;;;20.10;18.10;;;;;;;28.58;60.01;94083.84;834135;71;31782;-76
2021/07/01 06:01:14;;;;;;;23.30;20.43;;;;;;;29.38;57.94;94072.44;834066;71;31693;-75
2021/07/01 06:16:15;;;;;;;20.80;18.80;;;;;;;30.39;55.55;94082.31;833999;71;31742;-76
2021/07/01 06:31:17;;;;;;;20.27;18.20;;;;;;;31.15;52.78;94085.31;834013;71;31914;-81
2021/07/01 06:46:16;;;;;;;19.53;17.67;;;;;;;32.03;50.18;94080.98;827442;71;30785;-76
2021/07/01 07:01:08;;;;;;;22.70;19.63;;;;;;;31.86;48.37;94070.09;836062;70;27655;-78
2021/07/01 07:16:15;;;;;;;24.50;21.60;;;;;;;31.62;50.09;94057.45;827551;71;30787;-76
2021/07/01 07:31:12;;;;;;;23.23;20.83;;;;;;;32.17;48.57;94052.62;834137;71;28647;-76
2021/07/01 07:46:09;;;;;;;23.00;20.10;;;;;;;32.57;47.60;94037.14;829153;71;28054;-77
2021/07/01 08:01:32;;;;;;;21.10;19.00;;;;;;;32.81;45.68;94040.19;826470;71;31721;-79
2021/07/01 08:16:08;;;;;;;18.17;16.37;;;;;;;32.60;44.12;94032.17;828470;71;28689;-80
2021/07/01 08:31:17;;;;;;;15.60;14.10;;;;;;;32.89;41.39;94029.21;828322;71;31004;-79
2021/07/01 08:46:16;;;;;;;20.97;13.73;;;;;;;33.56;39.11;94008.67;817812;71;33417;-79
2021/07/01 09:16:10;;;;;;;13.10;11.53;;;;;;;34.35;36.12;93991.91;828212;71;28865;-77
2021/07/01 09:31:08;;;;;;;12.00;10.83;;;;;;;34.69;34.07;93978.58;828379;71;28763;-79
2021/07/01 09:46:15;;;;;;;16.90;11.47;;;;;;;34.19;34.01;93962.41;828249;71;28930;-80
2021/07/01 10:01:25;;;;;;;16.43;12.20;;;;;;;34.03;33.50;93946.34;833934;71;31719;-77
2021/07/01 10:16:14;;;;;;;12.87;11.37;;;;;;;34.95;33.16;93924.42;834016;71;31794;-77
2021/07/01 10:31:25;;;;;;;19.43;12.37;;;;;;;34.84;33.44;93905.09;833403;71;31895;-80
2021/07/01 10:46:08;;;;;;;14.20;11.37;;;;;;;34.86;32.40;93882.96;830237;70;28968;-78
2021/07/01 11:01:22;;;;;;;16.07;13.40;;;;;;;34.15;34.86;93863.00;827532;71;32220;-78
2021/07/01 11:16:13;;;;;;;19.17;13.50;;;;;;;34.07;34.66;93840.13;829891;71;29250;-79
2021/07/01 11:31:14;;;;;;;19.07;12.40;;;;;;;33.31;35.23;93829.52;827913;71;32312;-76
2021/07/01 11:46:14;;;;;;;17.00;12.40;;;;;;;32.81;35.17;93792.84;827261;71;31791;-76
2021/07/01 12:01:08;;;;;;;20.43;11.37;;;;;;;33.11;34.83;93758.64;828816;71;29659;-79
2021/07/01 12:16:12;;;;;;;26.03;11.47;;;;;;;33.18;34.49;93747.32;833856;71;28974;-77
2021/07/01 12:31:13;;;;;;;22.10;11.30;;;;;;;33.16;35.28;93723.30;833829;71;31000;-77
2021/07/01 12:46:45;;;;;;;14.67;9.60;;;;;;;33.57;35.02;93698.63;833557;71;31575;-79
2021/07/01 13:01:39;;;;;;;;;;;;;;;;;;;;;
2021/07/01 13:16:17;;;;;;;15.43;8.57;;;;;;;34.57;31.67;93679.06;828520;71;28508;-76
2021/07/01 13:31:15;;;;;;;16.50;8.87;;;;;;;34.48;32.03;93647.17;827382;71;31795;-76
2021/07/01 13:46:12;;;;;;;15.40;8.30;;;;;;;33.46;33.18;93702.58;823469;71;28330;-80
2021/07/01 14:01:09;;;;;;;20.47;8.70;;;;;;;32.47;35.62;93765.23;834746;71;30011;-77
2021/07/01 14:16:09;;;;;;;12.13;7.40;;;;;;;30.77;45.99;93801.30;834963;71;29480;-78
2021/07/01 14:31:35;;;;;;;;;;;;;;;;;;;;;
2021/07/01 14:46:22;;;;;;;9.77;7.53;;;;;;;29.13;49.55;93783.80;834353;71;29727;-83
2021/07/01 15:16:21;;;;;;;6.90;5.80;;;;;;;29.86;44.20;93734.77;834329;71;32746;-82
2021/07/01 15:31:08;;;;;;;9.90;5.77;;;;;;;30.07;43.84;93715.20;828863;71;29685;-81
2021/07/01 15:46:17;;;;;;;13.70;8.00;;;;;;;30.08;44.14;93764.66;828270;71;33194;-79
2021/07/01 16:01:20;;;;;;;11.30;7.13;;;;;;;29.64;42.58;93790.02;834134;71;33811;-78
2021/07/01 16:16:16;;;;;;;13.13;7.60;;;;;;;29.25;41.94;93817.48;827348;71;32767;-77
2021/07/01 16:31:09;;;;;;;12.33;8.17;;;;;;;28.62;45.13;93869.28;828547;71;29830;-78
2021/07/01 16:46:24;;;;;;;13.50;9.33;;;;;;;27.27;53.72;93917.78;834185;71;32710;-82
2021/07/01 17:01:14;;;;;;;14.23;11.60;;;;;;;;;;820088;71;32804;-80
2021/07/01 17:16:10;;;;;;;14.37;9.93;;;;;;;26.00;57.09;165524.83;834223;71;30397;-83
2021/07/01 17:31:15;;;;;;;11.90;9.73;;;;;;;25.69;57.96;93904.89;834071;71;33155;-76
2021/07/01 17:46:29;;;;;;;14.60;12.97;;;;;;;25.03;58.44;93948.77;834534;71;32857;-84
2021/07/01 18:01:25;;;;;;;10.70;9.60;;;;;;;24.17;61.07;93957.96;817219;72;32771;-88
2021/07/01 18:16:29;;;;;;;14.60;11.93;;;;;;;23.88;63.40;93959.34;800826;74;32942;-87
2021/07/01 18:31:17;;;;;;;12.67;9.30;;;;;;;24.45;62.04;93951.70;827745;71;32797;-85
2021/07/01 18:46:19;;;;;;;13.40;10.00;;;;;;;25.74;60.01;93933.44;835989;69;32759;-85
2021/07/01 19:01:11;;;;;;;11.47;10.03;;;;;;;21.92;58.72;93322.73;796107;73;29824;-87
2021/07/01 19:16:08;;;;;;;11.30;9.67;;;;;;;26.42;59.90;123554.15;828576;71;29701;-84
2021/07/01 19:31:10;;;;;;;14.30;10.53;;;;;;;22.56;58.70;93374.34;834633;71;31352;-84
2021/07/01 19:46:12;;;;;;;11.47;10.27;;;;;;;;;;820709;71;32062;-83
2021/07/01 20:01:14;;;;;;;21.87;10.47;;;;;;;26.94;57.07;165775.25;828697;71;32668;-84
2021/07/01 20:16:16;;;;;;;17.13;12.40;;;;;;;26.87;57.74;94009.91;792941;74;33317;-84
2021/07/01 20:31:08;;;;;;;15.70;10.97;;;;;;;;;;834224;71;29716;-81
2021/07/01 20:46:07;;;;;;;11.70;10.17;;;;;;;;;;834137;71;29660;-84
2021/07/01 21:16:37;;;;;;;9.60;8.70;;;;;;;26.67;55.09;93989.56;794577;74;33490;-81
2021/07/01 21:31:09;;;;;;;11.70;9.30;;;;;;;;;;829623;71;30282;-82
2021/07/01 22:01:09;;;;;;;11.40;10.17;;;;;;;26.49;54.15;93975.53;828359;71;30323;-82
2021/07/01 22:16:14;;;;;;;9.47;8.47;;;;;;;26.43;53.75;93961.00;834100;71;30701;-80
2021/07/01 22:31:15;;;;;;;9.43;7.93;;;;;;;26.42;53.69;93718.25;827528;71;32685;-80
2021/07/01 22:46:21;;;;;;;9.73;8.03;;;;;;;26.37;53.79;93982.20;827480;71;32870;-79
2021/07/01 23:01:13;;;;;;;10.47;8.13;;;;;;;26.33;53.10;123554.15;828300;71;32466;-82
2021/07/01 23:16:08;;;;;;;11.00;8.40;;;;;;;;;;828758;71;30347;-79
2021/07/01 23:31:09;;;;;;;10.83;7.80;;;;;;;26.12;52.70;93934.82;828266;71;30729;-80
2021/07/01 23:46:14;;;;;;;10.20;7.70;;;;;;;;;;829332;71;32698;-80
